ADDS METAR Data INFO
IDs: Format: Raw Decoded Include TAF

Data at: 1249 UTC 19 Oct 2017

KGLY 191235Z AUTO 19003KT 10SM CLR 12/08 A3014 RMK AO2
KGLY 191215Z AUTO 19003KT 10SM CLR 12/08 A3014 RMK AO2
KGLY 191155Z AUTO 19004KT 10SM CLR 12/08 A3014 RMK AO2
KGLY 191135Z AUTO 19004KT 10SM FEW047 11/08 A3014 RMK AO2
KGLY 191115Z AUTO 19004KT 10SM CLR 12/08 A3013 RMK AO2
KGLY 191055Z AUTO 19005KT 10SM FEW047 12/08 A3013 RMK AO2
KGLY 191035Z AUTO 19004KT 10SM FEW047 11/08 A3013 RMK AO2
KGLY 191015Z AUTO 19004KT 10SM FEW048 12/08 A3013 RMK AO2
KGLY 190955Z AUTO 19004KT 10SM SCT046 12/08 A3012 RMK AO2
KGLY 190935Z AUTO 19004KT 10SM FEW044 12/08 A3012 RMK AO2
KGLY 190915Z AUTO 19004KT 10SM CLR 12/08 A3012 RMK AO2
KGLY 190855Z AUTO 19005KT 10SM CLR 12/08 A3012 RMK AO2
KGLY 190835Z AUTO 19005KT 10SM CLR 13/08 A3012 RMK AO2
KGLY 190815Z AUTO 19004KT 10SM CLR 13/08 A3012 RMK AO2
KGLY 190755Z AUTO 19005KT 10SM CLR 13/08 A3011 RMK AO2
KGLY 190735Z AUTO 20004KT 10SM CLR 13/08 A3011 RMK AO2
KGLY 190715Z AUTO 19004KT 10SM CLR 12/08 A3011 RMK AO2
KGLY 190655Z AUTO 19003KT 10SM CLR 12/08 A3011 RMK AO2
KGLY 190635Z AUTO 18005KT 10SM CLR 13/08 A3010 RMK AO2
KGLY 190615Z AUTO 19004KT 10SM CLR 14/08 A3010 RMK AO2
KGLY 190555Z AUTO 19004KT 10SM CLR 14/08 A3010 RMK AO2
KGLY 190535Z AUTO 19004KT 10SM CLR 14/09 A3010 RMK AO2
KGLY 190515Z AUTO 19004KT 10SM CLR 14/09 A3009 RMK AO2
KGLY 190455Z AUTO 20005KT 10SM CLR 14/09 A3009 RMK AO2
KGLY 190435Z AUTO 19004KT 10SM CLR 14/09 A3009 RMK AO2
KGLY 190415Z AUTO 20004KT 10SM CLR 14/09 A3009 RMK AO2
KGLY 190355Z AUTO 19005KT 10SM CLR 12/10 A3009 RMK AO2
KGLY 190335Z AUTO 18003KT 10SM CLR 12/10 A3009 RMK AO2
KGLY 190315Z AUTO 10SM CLR 12/10 A3009 RMK AO2
KGLY 190255Z AUTO 19003KT 10SM CLR 13/10 A3008 RMK AO2
KGLY 190235Z AUTO 00000KT 10SM CLR 13/10 A3008 RMK AO2
KGLY 190215Z AUTO 00000KT 10SM CLR 14/10 A3007 RMK AO2
KGLY 190155Z AUTO 00000KT 10SM CLR 15/10 A3007 RMK AO2
KGLY 190135Z AUTO 10SM CLR 17/10 A3006 RMK AO2
KGLY 190115Z AUTO 18003KT 10SM CLR 18/10 A3006 RMK AO2
KGLY 190055Z AUTO 00000KT 10SM CLR 19/10 A3006 RMK AO2
KGLY 190035Z AUTO 19004KT 10SM CLR 19/10 A3005 RMK AO2
KGLY 190015Z AUTO 19005KT 10SM CLR 20/10 A3004 RMK AO2
KGLY 182355Z AUTO 18007KT 10SM CLR 20/10 A3004 RMK AO2
KGLY 182335Z AUTO 18007KT 10SM CLR 20/10 A3004 RMK AO2
KGLY 182315Z AUTO 19005KT 6SM HZ CLR 21/10 A3004 RMK AO2
KGLY 182255Z AUTO 19005KT 5SM HZ CLR 22/10 A3005 RMK AO2
KGLY 182235Z AUTO 19004KT 5SM HZ CLR 22/10 A3005 RMK AO2
KGLY 182215Z AUTO 20005KT 3SM HZ CLR 23/10 A3004 RMK AO2
KGLY 182155Z AUTO 21006KT 4SM HZ CLR 23/10 A3004 RMK AO2
KGLY 182135Z AUTO 19006KT 3SM HZ CLR 23/09 A3003 RMK AO2
KGLY 182115Z AUTO 18007KT 3SM HZ CLR 24/10 A3003 RMK AO2
KGLY 182055Z AUTO 18008KT 3SM HZ CLR 24/10 A3004 RMK AO2
KGLY 182035Z AUTO 19008G14KT 4SM HZ CLR 23/09 A3004 RMK AO2
KGLY 182015Z AUTO 19006KT 4SM HZ CLR 23/09 A3005 RMK AO2
KGLY 181955Z AUTO 18009KT 3SM HZ CLR 24/09 A3005 RMK AO2
KGLY 181935Z AUTO 18010G14KT 4SM HZ CLR 24/09 A3006 RMK AO2
KGLY 181915Z AUTO 21011KT 4SM HZ CLR 23/09 A3006 RMK AO2
KGLY 181855Z AUTO 19007KT 5SM HZ CLR 23/09 A3006 RMK AO2
KGLY 181835Z AUTO 18010G14KT 5SM HZ CLR 23/09 A3007 RMK AO2
KGLY 181815Z AUTO 20008KT 4SM HZ CLR 22/09 A3007 RMK AO2
KGLY 181755Z AUTO 20011G15KT 4SM HZ CLR 22/09 A3008 RMK AO2
KGLY 181735Z AUTO 21010G15KT 4SM HZ CLR 20/08 A3009 RMK AO2
KGLY 181715Z AUTO 19009G14KT 5SM HZ CLR 20/08 A3010 RMK AO2
KGLY 181655Z AUTO 20008KT 5SM HZ CLR 19/08 A3010 RMK AO2
KGLY 181635Z AUTO 20009KT 170V230 5SM HZ CLR 19/08 A3011 RMK AO2
KGLY 181615Z AUTO 20012G15KT 4SM HZ CLR 18/07 A3012 RMK AO2
KGLY 181555Z AUTO 21013G18KT 1 1/2SM HZ CLR 18/07 A3012 RMK AO2
KGLY 181535Z AUTO 21010G15KT 1 1/4SM HZ CLR 17/07 A3012 RMK AO2
KGLY 181515Z AUTO 20008G15KT 1 1/2SM HZ CLR 16/07 A3012 RMK AO2
KGLY 181455Z AUTO 20008G14KT 1 1/4SM HZ CLR 15/07 A3013 RMK AO2
KGLY 181435Z AUTO 20010G14KT 1 1/2SM HZ CLR 14/06 A3014 RMK AO2
KGLY 181415Z AUTO 20009KT 1 1/4SM HZ CLR 13/06 A3014 RMK AO2
KGLY 181315Z AUTO 18006KT 1 3/4SM HZ CLR 10/05 A3013 RMK AO2
KGLY 181255Z AUTO 19007KT 1 1/2SM HZ CLR 10/05 A3013 RMK AO2
KGLY 181235Z AUTO 19007KT 1 1/2SM HZ CLR 09/05 A3013 RMK AO2
KGLY 181215Z AUTO 20006KT 2SM HZ CLR 10/05 A3012 RMK AO2
KGLY 181155Z AUTO 20005KT 2SM HZ CLR 10/05 A3012 RMK AO2
KGLY 181135Z AUTO 19007KT 3SM HZ CLR 10/05 A3012 RMK AO2
KGLY 181115Z AUTO 18006KT 3SM HZ CLR 10/05 A3012 RMK AO2
KGLY 181055Z AUTO 19007KT 3SM HZ CLR 10/05 A3012 RMK AO2
KGLY 181035Z AUTO 19007KT 3SM HZ CLR 10/05 A3012 RMK AO2
KGLY 181015Z AUTO 19007KT 2 1/2SM HZ CLR 10/05 A3012 RMK AO2
KGLY 180955Z AUTO 19006KT 2 1/2SM HZ CLR 11/05 A3012 RMK AO2
KGLY 180935Z AUTO 18007KT 2 1/2SM HZ CLR 10/05 A3012 RMK AO2
KGLY 180915Z AUTO 18007KT 2 1/2SM HZ CLR 10/05 A3012 RMK AO2
KGLY 180855Z AUTO 19006KT 1 3/4SM HZ CLR 10/06 A3012 RMK AO2
KGLY 180835Z AUTO 19005KT 1 1/2SM HZ CLR 10/06 A3013 RMK AO2
KGLY 180815Z AUTO 00000KT 1 1/2SM HZ CLR 10/06 A3013 RMK AO2
KGLY 180755Z AUTO 18005KT 2SM HZ CLR 10/06 A3013 RMK AO2
KGLY 180735Z AUTO 19005KT 1 1/2SM HZ CLR 11/06 A3013 RMK AO2
KGLY 180715Z AUTO 19005KT 1 1/2SM HZ CLR 11/06 A3013 RMK AO2
KGLY 180655Z AUTO 19005KT 2SM HZ CLR 12/05 A3013 RMK AO2
KGLY 180635Z AUTO 19006KT 1 3/4SM HZ CLR 12/05 A3014 RMK AO2
KGLY 180615Z AUTO 19006KT 1 1/2SM HZ CLR 12/05 A3014 RMK AO2
KGLY 180555Z AUTO 19005KT 2SM HZ CLR 12/06 A3014 RMK AO2
KGLY 180535Z AUTO 19006KT 2 1/2SM HZ CLR 12/06 A3014 RMK AO2
KGLY 180515Z AUTO 19006KT 3SM HZ CLR 12/07 A3014 RMK AO2
KGLY 180455Z AUTO 18006KT 4SM HZ CLR 12/07 A3014 RMK AO2
KGLY 180435Z AUTO 18006KT 5SM HZ CLR 12/07 A3014 RMK AO2
KGLY 180415Z AUTO 18007KT 4SM HZ CLR 12/07 A3014 RMK AO2
KGLY 180355Z AUTO 18007KT 3SM HZ CLR 13/07 A3014 RMK AO2
KGLY 180335Z AUTO 18006KT 2SM HZ CLR 13/07 A3015 RMK AO2
KGLY 180315Z AUTO 18005KT 1 1/2SM HZ CLR 13/07 A3015 RMK AO2
KGLY 180255Z AUTO 18006KT 2SM HZ CLR 13/08 A3014 RMK AO2
KGLY 180235Z AUTO 17005KT 3SM HZ CLR 13/08 A3014 RMK AO2
KGLY 180215Z AUTO 17005KT 3SM HZ CLR 13/08 A3014 RMK AO2
KGLY 180155Z AUTO 16004KT 4SM HZ CLR 14/08 A3014 RMK AO2
KGLY 180135Z AUTO 00000KT 3SM HZ CLR 14/08 A3014 RMK AO2
KGLY 180115Z AUTO 00000KT 3SM HZ CLR 14/08 A3014 RMK AO2
KGLY 180055Z AUTO 00000KT 2 1/2SM HZ CLR 14/07 A3014 RMK AO2